PWSweather.com
Personal Weather Stations
Station Observations
WXGLH1124
Southern Oaks, Indianapolis, IN 46217

Southern OaksIndianapolis, IN 46217

Lat: 39.65113, Lon: -86.16866

Elevation: 720

Station Type: Vantage Pro2

High Low Average
Temperature 32.3°F0.2°C 25.6°F-3.6°C 29.9°F-1.2°C
Dew Point 30.2°F-1.0°C 21.5°F-5.8°C 26.2°F-3.2°C
Winds 9.0 mph 14.5 kmh Calm Calm 2.0 mph SE3.2 kmh SE
Wind Gusts 13.0 mph20.9 kmh -- 5.0 mph8.0 kmh
Humidity 92% 81% 86%
Pressure 30.03 in1016.9 mb 29.78 in1008.5 mb -
Precipitation 0.00 in0.0 mm - -
Hour Temp Dew Point Humidity Winds Wind Gusts Pressure Precip Precip Rate Daily Precip Total
12:00 AM 26.0°F-3.3°C 21.3°F-5.9°C 82% 5.0 mph NE8.0 kmh NE 9.0 mph14.5 kmh 30.01 in1016.3 mb 0.00 in0.0 mm 0.00 in0.0 mm 0.00 in0.0 mm
12:05 AM 26.0°F-3.3°C 21.3°F-5.9°C 82% 7.0 mph E11.3 kmh E 8.0 mph12.9 kmh 30.01 in1016.3 mb 0.00 in0.0 mm 0.00 in0.0 mm 0.00 in0.0 mm
12:10 AM 26.0°F-3.3°C 21.3°F-5.9°C 82% 2.0 mph ENE3.2 kmh ENE 7.0 mph11.3 kmh 30.01 in1016.3 mb 0.00 in0.0 mm 0.00 in0.0 mm 0.00 in0.0 mm
12:15 AM 25.9°F-3.4°C 21.5°F-5.8°C 83% 1.0 mph E1.6 kmh E 8.0 mph12.9 kmh 30.01 in1016.3 mb 0.00 in0.0 mm 0.00 in0.0 mm 0.00 in0.0 mm
12:20 AM 25.9°F-3.4°C 21.5°F-5.8°C 83% Calm Calm 4.0 mph6.4 kmh 30.02 in1016.6 mb 0.00 in0.0 mm 0.00 in0.0 mm 0.00 in0.0 mm
12:25 AM 25.9°F-3.4°C 21.5°F-5.8°C 83% 2.0 mph E3.2 kmh E 6.0 mph9.7 kmh 30.03 in1016.9 mb 0.00 in0.0 mm 0.00 in0.0 mm 0.00 in0.0 mm
12:29 AM 25.9°F-3.4°C 21.5°F-5.8°C 83% Calm Calm 4.0 mph6.4 kmh 30.03 in1016.9 mb 0.00 in0.0 mm 0.00 in0.0 mm 0.00 in0.0 mm
12:35 AM 26.0°F-3.3°C 21.6°F-5.8°C 83% 1.0 mph ESE1.6 kmh ESE 7.0 mph11.3 kmh 30.03 in1016.9 mb 0.00 in0.0 mm 0.00 in0.0 mm 0.00 in0.0 mm
12:40 AM 26.0°F-3.3°C 21.6°F-5.8°C 83% Calm Calm 3.0 mph4.8 kmh 30.03 in1016.9 mb 0.00 in0.0 mm 0.00 in0.0 mm 0.00 in0.0 mm
12:45 AM 25.9°F-3.4°C 21.5°F-5.8°C 83% Calm Calm 1.0 mph1.6 kmh 30.03 in1016.9 mb 0.00 in0.0 mm 0.00 in0.0 mm 0.00 in0.0 mm
12:50 AM 25.9°F-3.4°C 21.5°F-5.8°C 83% 1.0 mph E1.6 kmh E 3.0 mph4.8 kmh 30.03 in1016.9 mb 0.00 in0.0 mm 0.00 in0.0 mm 0.00 in0.0 mm
12:54 AM 25.8°F-3.4°C 21.6°F-5.8°C 84% Calm Calm 2.0 mph3.2 kmh 30.03 in1016.9 mb 0.00 in0.0 mm 0.00 in0.0 mm 0.00 in0.0 mm
01:00 AM 25.8°F-3.4°C 21.6°F-5.8°C 84% 1.0 mph E1.6 kmh E 4.0 mph6.4 kmh 30.03 in1016.9 mb 0.00 in0.0 mm 0.00 in0.0 mm 0.00 in0.0 mm
01:05 AM 25.8°F-3.4°C 21.6°F-5.8°C 84% Calm Calm 3.0 mph4.8 kmh 30.03 in1016.9 mb 0.00 in0.0 mm 0.00 in0.0 mm 0.00 in0.0 mm
01:10 AM 25.7°F-3.5°C 21.5°F-5.8°C 84% 1.0 mph E1.6 kmh E 3.0 mph4.8 kmh 30.02 in1016.6 mb 0.00 in0.0 mm 0.00 in0.0 mm 0.00 in0.0 mm
01:15 AM 25.7°F-3.5°C 21.5°F-5.8°C 84% 2.0 mph ENE3.2 kmh ENE 4.0 mph6.4 kmh 30.02 in1016.6 mb 0.00 in0.0 mm 0.00 in0.0 mm 0.00 in0.0 mm
01:20 AM 25.7°F-3.5°C 21.5°F-5.8°C 84% Calm Calm 4.0 mph6.4 kmh 30.01 in1016.3 mb 0.00 in0.0 mm 0.00 in0.0 mm 0.00 in0.0 mm
01:24 AM 25.7°F-3.5°C 21.5°F-5.8°C 84% Calm Calm 2.0 mph3.2 kmh 30.02 in1016.6 mb 0.00 in0.0 mm 0.00 in0.0 mm 0.00 in0.0 mm
01:30 AM 25.7°F-3.5°C 21.5°F-5.8°C 84% 1.0 mph E1.6 kmh E 1.0 mph1.6 kmh 30.02 in1016.6 mb 0.00 in0.0 mm 0.00 in0.0 mm 0.00 in0.0 mm
01:34 AM 25.6°F-3.6°C 21.5°F-5.8°C 84% Calm Calm 2.0 mph3.2 kmh 30.02 in1016.6 mb 0.00 in0.0 mm 0.00 in0.0 mm 0.00 in0.0 mm
01:40 AM 25.6°F-3.6°C 21.5°F-5.8°C 84% Calm Calm 4.0 mph6.4 kmh 30.02 in1016.6 mb 0.00 in0.0 mm 0.00 in0.0 mm 0.00 in0.0 mm
01:45 AM 25.6°F-3.6°C 21.5°F-5.8°C 84% Calm Calm 3.0 mph4.8 kmh 30.01 in1016.3 mb 0.00 in0.0 mm 0.00 in0.0 mm 0.00 in0.0 mm
01:49 AM 25.7°F-3.5°C 21.5°F-5.8°C 84% 1.0 mph E1.6 kmh E 7.0 mph11.3 kmh 30.01 in1016.3 mb 0.00 in0.0 mm 0.00 in0.0 mm 0.00 in0.0 mm
01:55 AM 25.8°F-3.4°C 21.9°F-5.6°C 85% 1.0 mph SE1.6 kmh SE 4.0 mph6.4 kmh 30.02 in1016.6 mb 0.00 in0.0 mm 0.00 in0.0 mm 0.00 in0.0 mm
02:00 AM 25.9°F-3.4°C 21.7°F-5.7°C 84% Calm Calm 3.0 mph4.8 kmh 30.02 in1016.6 mb 0.00 in0.0 mm 0.00 in0.0 mm 0.00 in0.0 mm
02:05 AM 25.9°F-3.4°C 21.7°F-5.7°C 84% Calm Calm 5.0 mph8.0 kmh 30.01 in1016.3 mb 0.00 in0.0 mm 0.00 in0.0 mm 0.00 in0.0 mm
02:10 AM 26.0°F-3.3°C 21.8°F-5.7°C 84% 2.0 mph E3.2 kmh E 4.0 mph6.4 kmh 30.02 in1016.6 mb 0.00 in0.0 mm 0.00 in0.0 mm 0.00 in0.0 mm
02:15 AM 26.0°F-3.3°C 21.8°F-5.7°C 84% 1.0 mph E1.6 kmh E 2.0 mph3.2 kmh 30.02 in1016.6 mb 0.00 in0.0 mm 0.00 in0.0 mm 0.00 in0.0 mm
02:20 AM 26.0°F-3.3°C 21.8°F-5.7°C 84% Calm Calm 1.0 mph1.6 kmh 30.02 in1016.6 mb 0.00 in0.0 mm 0.00 in0.0 mm 0.00 in0.0 mm
02:25 AM 26.0°F-3.3°C 21.8°F-5.7°C 84% 2.0 mph ESE3.2 kmh ESE 4.0 mph6.4 kmh 30.01 in1016.3 mb 0.00 in0.0 mm 0.00 in0.0 mm 0.00 in0.0 mm
02:30 AM 26.1°F-3.3°C 21.9°F-5.6°C 84% 7.0 mph E11.3 kmh E 7.0 mph11.3 kmh 30.00 in1015.9 mb 0.00 in0.0 mm 0.00 in0.0 mm 0.00 in0.0 mm
02:35 AM 26.1°F-3.3°C 21.9°F-5.6°C 84% Calm Calm 7.0 mph11.3 kmh 30.00 in1015.9 mb 0.00 in0.0 mm 0.00 in0.0 mm 0.00 in0.0 mm
02:40 AM 26.2°F-3.2°C 22.0°F-5.6°C 84% 1.0 mph E1.6 kmh E 8.0 mph12.9 kmh 30.00 in1015.9 mb 0.00 in0.0 mm 0.00 in0.0 mm 0.00 in0.0 mm
02:45 AM 26.2°F-3.2°C 22.0°F-5.6°C 84% Calm Calm 4.0 mph6.4 kmh 30.00 in1015.9 mb 0.00 in0.0 mm 0.00 in0.0 mm 0.00 in0.0 mm
02:49 AM 26.2°F-3.2°C 22.0°F-5.6°C 84% 3.0 mph ENE4.8 kmh ENE 7.0 mph11.3 kmh 30.00 in1015.9 mb 0.00 in0.0 mm 0.00 in0.0 mm 0.00 in0.0 mm
02:55 AM 26.3°F-3.2°C 22.1°F-5.5°C 84% 1.0 mph E1.6 kmh E 8.0 mph12.9 kmh 30.01 in1016.3 mb 0.00 in0.0 mm 0.00 in0.0 mm 0.00 in0.0 mm
03:00 AM 26.4°F-3.1°C 22.2°F-5.4°C 84% 1.0 mph ENE1.6 kmh ENE 5.0 mph8.0 kmh 30.01 in1016.3 mb 0.00 in0.0 mm 0.00 in0.0 mm 0.00 in0.0 mm
03:05 AM 26.4°F-3.1°C 22.2°F-5.4°C 84% 1.0 mph E1.6 kmh E 4.0 mph6.4 kmh 30.00 in1015.9 mb 0.00 in0.0 mm 0.00 in0.0 mm 0.00 in0.0 mm
03:10 AM 26.5°F-3.1°C 22.3°F-5.4°C 84% 1.0 mph E1.6 kmh E 2.0 mph3.2 kmh 30.01 in1016.3 mb 0.00 in0.0 mm 0.00 in0.0 mm 0.00 in0.0 mm
03:15 AM 26.5°F-3.1°C 22.1°F-5.5°C 83% 2.0 mph SE3.2 kmh SE 4.0 mph6.4 kmh 30.01 in1016.3 mb 0.00 in0.0 mm 0.00 in0.0 mm 0.00 in0.0 mm
03:20 AM 26.6°F-3.0°C 22.1°F-5.5°C 83% 1.0 mph NE1.6 kmh NE 5.0 mph8.0 kmh 30.01 in1016.3 mb 0.00 in0.0 mm 0.00 in0.0 mm 0.00 in0.0 mm
03:25 AM 26.6°F-3.0°C 22.1°F-5.5°C 83% Calm Calm 10.0 mph16.1 kmh 30.00 in1015.9 mb 0.00 in0.0 mm 0.00 in0.0 mm 0.00 in0.0 mm
03:29 AM 26.7°F-2.9°C 22.2°F-5.4°C 83% 1.0 mph E1.6 kmh E 6.0 mph9.7 kmh 30.00 in1015.9 mb 0.00 in0.0 mm 0.00 in0.0 mm 0.00 in0.0 mm
03:34 AM 26.7°F-2.9°C 22.2°F-5.4°C 83% Calm Calm 4.0 mph6.4 kmh 30.00 in1015.9 mb 0.00 in0.0 mm 0.00 in0.0 mm 0.00 in0.0 mm
03:40 AM 26.7°F-2.9°C 22.2°F-5.4°C 83% 1.0 mph ENE1.6 kmh ENE 4.0 mph6.4 kmh 29.99 in1015.6 mb 0.00 in0.0 mm 0.00 in0.0 mm 0.00 in0.0 mm
03:45 AM 26.8°F-2.9°C 22.3°F-5.4°C 83% 2.0 mph ENE3.2 kmh ENE 5.0 mph8.0 kmh 29.98 in1015.2 mb 0.00 in0.0 mm 0.00 in0.0 mm 0.00 in0.0 mm
03:49 AM 26.8°F-2.9°C 22.3°F-5.4°C 83% Calm Calm 5.0 mph8.0 kmh 29.98 in1015.2 mb 0.00 in0.0 mm 0.00 in0.0 mm 0.00 in0.0 mm
03:55 AM 26.9°F-2.8°C 22.4°F-5.3°C 83% Calm Calm 6.0 mph9.7 kmh 29.99 in1015.6 mb 0.00 in0.0 mm 0.00 in0.0 mm 0.00 in0.0 mm
04:00 AM 27.0°F-2.8°C 22.5°F-5.3°C 83% Calm Calm 4.0 mph6.4 kmh 29.99 in1015.6 mb 0.00 in0.0 mm 0.00 in0.0 mm 0.00 in0.0 mm
04:05 AM 27.0°F-2.8°C 22.5°F-5.3°C 83% 7.0 mph NE11.3 kmh NE 12.0 mph19.3 kmh 29.95 in1014.2 mb 0.00 in0.0 mm 0.00 in0.0 mm 0.00 in0.0 mm
04:10 AM 26.9°F-2.8°C 22.4°F-5.3°C 83% 3.0 mph ENE4.8 kmh ENE 6.0 mph9.7 kmh 29.94 in1013.9 mb 0.00 in0.0 mm 0.00 in0.0 mm 0.00 in0.0 mm
04:15 AM 27.0°F-2.8°C 22.5°F-5.3°C 83% 4.0 mph E6.4 kmh E 9.0 mph14.5 kmh 29.94 in1013.9 mb 0.00 in0.0 mm 0.00 in0.0 mm 0.00 in0.0 mm
04:19 AM 27.0°F-2.8°C 22.5°F-5.3°C 83% Calm Calm 7.0 mph11.3 kmh 29.94 in1013.9 mb 0.00 in0.0 mm 0.00 in0.0 mm 0.00 in0.0 mm
04:25 AM 27.1°F-2.7°C 22.6°F-5.2°C 83% 2.0 mph E3.2 kmh E 6.0 mph9.7 kmh 29.94 in1013.9 mb 0.00 in0.0 mm 0.00 in0.0 mm 0.00 in0.0 mm
04:30 AM 27.1°F-2.7°C 22.6°F-5.2°C 83% 1.0 mph ENE1.6 kmh ENE 8.0 mph12.9 kmh 29.93 in1013.5 mb 0.00 in0.0 mm 0.00 in0.0 mm 0.00 in0.0 mm
04:35 AM 27.2°F-2.7°C 22.7°F-5.2°C 83% 4.0 mph ESE6.4 kmh ESE 5.0 mph8.0 kmh 29.94 in1013.9 mb 0.00 in0.0 mm 0.00 in0.0 mm 0.00 in0.0 mm
04:40 AM 27.2°F-2.7°C 22.4°F-5.3°C 82% Calm Calm 5.0 mph8.0 kmh 29.94 in1013.9 mb 0.00 in0.0 mm 0.00 in0.0 mm 0.00 in0.0 mm
04:45 AM 27.3°F-2.6°C 22.5°F-5.3°C 82% Calm Calm 5.0 mph8.0 kmh 29.94 in1013.9 mb 0.00 in0.0 mm 0.00 in0.0 mm 0.00 in0.0 mm
04:50 AM 27.3°F-2.6°C 22.5°F-5.3°C 82% 2.0 mph ENE3.2 kmh ENE 7.0 mph11.3 kmh 29.94 in1013.9 mb 0.00 in0.0 mm 0.00 in0.0 mm 0.00 in0.0 mm
04:55 AM 27.4°F-2.6°C 22.6°F-5.2°C 82% 2.0 mph ESE3.2 kmh ESE 3.0 mph4.8 kmh 29.94 in1013.9 mb 0.00 in0.0 mm 0.00 in0.0 mm 0.00 in0.0 mm
05:00 AM 27.4°F-2.6°C 22.6°F-5.2°C 82% 3.0 mph SE4.8 kmh SE 8.0 mph12.9 kmh 29.94 in1013.9 mb 0.00 in0.0 mm 0.00 in0.0 mm 0.00 in0.0 mm
05:04 AM 27.4°F-2.6°C 22.6°F-5.2°C 82% Calm Calm 4.0 mph6.4 kmh 29.95 in1014.2 mb 0.00 in0.0 mm 0.00 in0.0 mm 0.00 in0.0 mm
05:09 AM 27.5°F-2.5°C 22.7°F-5.2°C 82% 1.0 mph ESE1.6 kmh ESE 6.0 mph9.7 kmh 29.94 in1013.9 mb 0.00 in0.0 mm 0.00 in0.0 mm 0.00 in0.0 mm
05:15 AM 27.5°F-2.5°C 22.7°F-5.2°C 82% 2.0 mph SE3.2 kmh SE 5.0 mph8.0 kmh 29.94 in1013.9 mb 0.00 in0.0 mm 0.00 in0.0 mm 0.00 in0.0 mm
05:20 AM 27.6°F-2.4°C 22.8°F-5.1°C 82% Calm Calm 5.0 mph8.0 kmh 29.94 in1013.9 mb 0.00 in0.0 mm 0.00 in0.0 mm 0.00 in0.0 mm
05:25 AM 27.7°F-2.4°C 22.9°F-5.1°C 82% 6.0 mph SSE9.7 kmh SSE 6.0 mph9.7 kmh 29.94 in1013.9 mb 0.00 in0.0 mm 0.00 in0.0 mm 0.00 in0.0 mm
05:30 AM 27.7°F-2.4°C 22.9°F-5.1°C 82% 2.0 mph E3.2 kmh E 4.0 mph6.4 kmh 29.94 in1013.9 mb 0.00 in0.0 mm 0.00 in0.0 mm 0.00 in0.0 mm
05:34 AM 27.8°F-2.3°C 23.0°F-5.0°C 82% 1.0 mph ENE1.6 kmh ENE 5.0 mph8.0 kmh 29.93 in1013.5 mb 0.00 in0.0 mm 0.00 in0.0 mm 0.00 in0.0 mm
05:39 AM 27.8°F-2.3°C 23.0°F-5.0°C 82% 1.0 mph E1.6 kmh E 7.0 mph11.3 kmh 29.92 in1013.2 mb 0.00 in0.0 mm 0.00 in0.0 mm 0.00 in0.0 mm
05:44 AM 27.8°F-2.3°C 23.0°F-5.0°C 82% 2.0 mph E3.2 kmh E 4.0 mph6.4 kmh 29.93 in1013.5 mb 0.00 in0.0 mm 0.00 in0.0 mm 0.00 in0.0 mm
05:50 AM 27.9°F-2.3°C 23.1°F-4.9°C 82% Calm Calm 5.0 mph8.0 kmh 29.92 in1013.2 mb 0.00 in0.0 mm 0.00 in0.0 mm 0.00 in0.0 mm
05:55 AM 27.9°F-2.3°C 23.1°F-4.9°C 82% 1.0 mph E1.6 kmh E 10.0 mph16.1 kmh 29.92 in1013.2 mb 0.00 in0.0 mm 0.00 in0.0 mm 0.00 in0.0 mm
06:00 AM 27.8°F-2.3°C 23.0°F-5.0°C 82% 3.0 mph E4.8 kmh E 4.0 mph6.4 kmh 29.93 in1013.5 mb 0.00 in0.0 mm 0.00 in0.0 mm 0.00 in0.0 mm
06:05 AM 27.8°F-2.3°C 22.7°F-5.2°C 81% 4.0 mph E6.4 kmh E 7.0 mph11.3 kmh 29.93 in1013.5 mb 0.00 in0.0 mm 0.00 in0.0 mm 0.00 in0.0 mm
06:09 AM 27.9°F-2.3°C 23.1°F-4.9°C 82% 7.0 mph NE11.3 kmh NE 7.0 mph11.3 kmh 29.92 in1013.2 mb 0.00 in0.0 mm 0.00 in0.0 mm 0.00 in0.0 mm
06:15 AM 27.9°F-2.3°C 22.8°F-5.1°C 81% 3.0 mph SE4.8 kmh SE 5.0 mph8.0 kmh 29.94 in1013.9 mb 0.00 in0.0 mm 0.00 in0.0 mm 0.00 in0.0 mm
06:20 AM 27.9°F-2.3°C 23.1°F-4.9°C 82% Calm Calm 2.0 mph3.2 kmh 29.93 in1013.5 mb 0.00 in0.0 mm 0.00 in0.0 mm 0.00 in0.0 mm
06:24 AM 28.0°F-2.2°C 23.2°F-4.9°C 82% Calm Calm 6.0 mph9.7 kmh 29.93 in1013.5 mb 0.00 in0.0 mm 0.00 in0.0 mm 0.00 in0.0 mm
06:30 AM 28.0°F-2.2°C 22.9°F-5.1°C 81% 1.0 mph ENE1.6 kmh ENE 5.0 mph8.0 kmh 29.93 in1013.5 mb 0.00 in0.0 mm 0.00 in0.0 mm 0.00 in0.0 mm
06:35 AM 28.0°F-2.2°C 22.9°F-5.1°C 81% 4.0 mph NE6.4 kmh NE 7.0 mph11.3 kmh 29.93 in1013.5 mb 0.00 in0.0 mm 0.00 in0.0 mm 0.00 in0.0 mm
06:40 AM 28.0°F-2.2°C 22.9°F-5.1°C 81% 3.0 mph E4.8 kmh E 5.0 mph8.0 kmh 29.92 in1013.2 mb 0.00 in0.0 mm 0.00 in0.0 mm 0.00 in0.0 mm
06:45 AM 28.0°F-2.2°C 22.9°F-5.1°C 81% 3.0 mph NE4.8 kmh NE 8.0 mph12.9 kmh 29.93 in1013.5 mb 0.00 in0.0 mm 0.00 in0.0 mm 0.00 in0.0 mm
06:50 AM 28.0°F-2.2°C 22.9°F-5.1°C 81% Calm Calm 5.0 mph8.0 kmh 29.94 in1013.9 mb 0.00 in0.0 mm 0.00 in0.0 mm 0.00 in0.0 mm
06:55 AM 28.1°F-2.2°C 23.0°F-5.0°C 81% 3.0 mph ENE4.8 kmh ENE 9.0 mph14.5 kmh 29.94 in1013.9 mb 0.00 in0.0 mm 0.00 in0.0 mm 0.00 in0.0 mm
07:00 AM 28.1°F-2.2°C 23.0°F-5.0°C 81% 5.0 mph NNE8.0 kmh NNE 7.0 mph11.3 kmh 29.94 in1013.9 mb 0.00 in0.0 mm 0.00 in0.0 mm 0.00 in0.0 mm
07:05 AM 28.1°F-2.2°C 23.0°F-5.0°C 81% Calm Calm 6.0 mph9.7 kmh 29.94 in1013.9 mb 0.00 in0.0 mm 0.00 in0.0 mm 0.00 in0.0 mm
07:10 AM 28.2°F-2.1°C 23.1°F-4.9°C 81% 1.0 mph E1.6 kmh E 6.0 mph9.7 kmh 29.93 in1013.5 mb 0.00 in0.0 mm 0.00 in0.0 mm 0.00 in0.0 mm
07:15 AM 28.2°F-2.1°C 23.1°F-4.9°C 81% 3.0 mph NE4.8 kmh NE 8.0 mph12.9 kmh 29.93 in1013.5 mb 0.00 in0.0 mm 0.00 in0.0 mm 0.00 in0.0 mm
07:20 AM 28.2°F-2.1°C 23.1°F-4.9°C 81% 2.0 mph E3.2 kmh E 8.0 mph12.9 kmh 29.92 in1013.2 mb 0.00 in0.0 mm 0.00 in0.0 mm 0.00 in0.0 mm
07:25 AM 28.2°F-2.1°C 23.1°F-4.9°C 81% 4.0 mph ENE6.4 kmh ENE 6.0 mph9.7 kmh 29.93 in1013.5 mb 0.00 in0.0 mm 0.00 in0.0 mm 0.00 in0.0 mm
07:29 AM 28.2°F-2.1°C 23.1°F-4.9°C 81% 3.0 mph E4.8 kmh E 7.0 mph11.3 kmh 29.92 in1013.2 mb 0.00 in0.0 mm 0.00 in0.0 mm 0.00 in0.0 mm
07:34 AM 28.2°F-2.1°C 23.1°F-4.9°C 81% 5.0 mph ENE8.0 kmh ENE 5.0 mph8.0 kmh 29.92 in1013.2 mb 0.00 in0.0 mm 0.00 in0.0 mm 0.00 in0.0 mm
07:40 AM 28.2°F-2.1°C 23.1°F-4.9°C 81% 4.0 mph E6.4 kmh E 10.0 mph16.1 kmh 29.91 in1012.9 mb 0.00 in0.0 mm 0.00 in0.0 mm 0.00 in0.0 mm
07:45 AM 28.1°F-2.2°C 23.0°F-5.0°C 81% 1.0 mph E1.6 kmh E 7.0 mph11.3 kmh 29.92 in1013.2 mb 0.00 in0.0 mm 0.00 in0.0 mm 0.00 in0.0 mm
07:50 AM 28.2°F-2.1°C 23.1°F-4.9°C 81% 4.0 mph ENE6.4 kmh ENE 11.0 mph17.7 kmh 29.91 in1012.9 mb 0.00 in0.0 mm 0.00 in0.0 mm 0.00 in0.0 mm
07:55 AM 28.1°F-2.2°C 23.0°F-5.0°C 81% Calm Calm 6.0 mph9.7 kmh 29.92 in1013.2 mb 0.00 in0.0 mm 0.00 in0.0 mm 0.00 in0.0 mm
07:59 AM 28.1°F-2.2°C 23.0°F-5.0°C 81% Calm Calm 8.0 mph12.9 kmh 29.91 in1012.9 mb 0.00 in0.0 mm 0.00 in0.0 mm 0.00 in0.0 mm
08:05 AM 28.2°F-2.1°C 23.4°F-4.8°C 82% 2.0 mph NE3.2 kmh NE 9.0 mph14.5 kmh 29.90 in1012.5 mb 0.00 in0.0 mm 0.00 in0.0 mm 0.00 in0.0 mm
08:10 AM 28.2°F-2.1°C 23.1°F-4.9°C 81% 3.0 mph E4.8 kmh E 9.0 mph14.5 kmh 29.90 in1012.5 mb 0.00 in0.0 mm 0.00 in0.0 mm 0.00 in0.0 mm
08:15 AM 28.2°F-2.1°C 23.4°F-4.8°C 82% 2.0 mph SE3.2 kmh SE 6.0 mph9.7 kmh 29.91 in1012.9 mb 0.00 in0.0 mm 0.00 in0.0 mm 0.00 in0.0 mm
08:20 AM 28.3°F-2.1°C 23.2°F-4.9°C 81% 5.0 mph NE8.0 kmh NE 9.0 mph14.5 kmh 29.90 in1012.5 mb 0.00 in0.0 mm 0.00 in0.0 mm 0.00 in0.0 mm
08:25 AM 28.2°F-2.1°C 23.4°F-4.8°C 82% 7.0 mph NE11.3 kmh NE 8.0 mph12.9 kmh 29.90 in1012.5 mb 0.00 in0.0 mm 0.00 in0.0 mm 0.00 in0.0 mm
08:29 AM 28.2°F-2.1°C 23.4°F-4.8°C 82% 2.0 mph E3.2 kmh E 8.0 mph12.9 kmh 29.88 in1011.9 mb 0.00 in0.0 mm 0.00 in0.0 mm 0.00 in0.0 mm
08:35 AM 28.2°F-2.1°C 23.4°F-4.8°C 82% 4.0 mph E6.4 kmh E 7.0 mph11.3 kmh 29.88 in1011.9 mb 0.00 in0.0 mm 0.00 in0.0 mm 0.00 in0.0 mm
08:39 AM 28.2°F-2.1°C 23.4°F-4.8°C 82% 1.0 mph ENE1.6 kmh ENE 7.0 mph11.3 kmh 29.87 in1011.5 mb 0.00 in0.0 mm 0.00 in0.0 mm 0.00 in0.0 mm
08:44 AM 28.3°F-2.1°C 23.5°F-4.7°C 82% 4.0 mph E6.4 kmh E 6.0 mph9.7 kmh 29.87 in1011.5 mb 0.00 in0.0 mm 0.00 in0.0 mm 0.00 in0.0 mm
08:49 AM 28.3°F-2.1°C 23.5°F-4.7°C 82% 1.0 mph ENE1.6 kmh ENE 6.0 mph9.7 kmh 29.87 in1011.5 mb 0.00 in0.0 mm 0.00 in0.0 mm 0.00 in0.0 mm
08:55 AM 28.3°F-2.1°C 23.5°F-4.7°C 82% 4.0 mph SE6.4 kmh SE 7.0 mph11.3 kmh 29.87 in1011.5 mb 0.00 in0.0 mm 0.00 in0.0 mm 0.00 in0.0 mm
09:00 AM 28.4°F-2.0°C 23.6°F-4.7°C 82% 2.0 mph ESE3.2 kmh ESE 4.0 mph6.4 kmh 29.88 in1011.9 mb 0.00 in0.0 mm 0.00 in0.0 mm 0.00 in0.0 mm
09:05 AM 28.4°F-2.0°C 23.6°F-4.7°C 82% 9.0 mph NE14.5 kmh NE 9.0 mph14.5 kmh 29.88 in1011.9 mb 0.00 in0.0 mm 0.00 in0.0 mm 0.00 in0.0 mm
09:10 AM 28.5°F-1.9°C 23.4°F-4.8°C 81% 1.0 mph ENE1.6 kmh ENE 8.0 mph12.9 kmh 29.87 in1011.5 mb 0.00 in0.0 mm 0.00 in0.0 mm 0.00 in0.0 mm
09:15 AM 28.6°F-1.9°C 23.5°F-4.7°C 81% 4.0 mph E6.4 kmh E 10.0 mph16.1 kmh 29.89 in1012.2 mb 0.00 in0.0 mm 0.00 in0.0 mm 0.00 in0.0 mm
09:20 AM 28.6°F-1.9°C 23.5°F-4.7°C 81% 2.0 mph SE3.2 kmh SE 4.0 mph6.4 kmh 29.89 in1012.2 mb 0.00 in0.0 mm 0.00 in0.0 mm 0.00 in0.0 mm
09:25 AM 28.7°F-1.8°C 23.6°F-4.7°C 81% 4.0 mph SE6.4 kmh SE 6.0 mph9.7 kmh 29.90 in1012.5 mb 0.00 in0.0 mm 0.00 in0.0 mm 0.00 in0.0 mm
09:30 AM 28.7°F-1.8°C 23.6°F-4.7°C 81% 3.0 mph E4.8 kmh E 7.0 mph11.3 kmh 29.89 in1012.2 mb 0.00 in0.0 mm 0.00 in0.0 mm 0.00 in0.0 mm
09:35 AM 28.8°F-1.8°C 23.7°F-4.6°C 81% Calm Calm 4.0 mph6.4 kmh 29.90 in1012.5 mb 0.00 in0.0 mm 0.00 in0.0 mm 0.00 in0.0 mm
09:40 AM 28.9°F-1.7°C 24.1°F-4.4°C 82% 4.0 mph E6.4 kmh E 7.0 mph11.3 kmh 29.90 in1012.5 mb 0.00 in0.0 mm 0.00 in0.0 mm 0.00 in0.0 mm
09:45 AM 28.9°F-1.7°C 24.1°F-4.4°C 82% 1.0 mph ESE1.6 kmh ESE 4.0 mph6.4 kmh 29.88 in1011.9 mb 0.00 in0.0 mm 0.00 in0.0 mm 0.00 in0.0 mm
09:50 AM 28.9°F-1.7°C 24.1°F-4.4°C 82% 4.0 mph ENE6.4 kmh ENE 4.0 mph6.4 kmh 29.89 in1012.2 mb 0.00 in0.0 mm 0.00 in0.0 mm 0.00 in0.0 mm
09:55 AM 28.9°F-1.7°C 24.1°F-4.4°C 82% 2.0 mph E3.2 kmh E 11.0 mph17.7 kmh 29.88 in1011.9 mb 0.00 in0.0 mm 0.00 in0.0 mm 0.00 in0.0 mm
10:00 AM 28.9°F-1.7°C 24.1°F-4.4°C 82% Calm Calm 1.0 mph1.6 kmh 29.89 in1012.2 mb 0.00 in0.0 mm 0.00 in0.0 mm 0.00 in0.0 mm
10:05 AM 29.0°F-1.7°C 24.2°F-4.3°C 82% 2.0 mph ENE3.2 kmh ENE 4.0 mph6.4 kmh 29.89 in1012.2 mb 0.00 in0.0 mm 0.00 in0.0 mm 0.00 in0.0 mm
10:10 AM 29.0°F-1.7°C 24.2°F-4.3°C 82% 2.0 mph E3.2 kmh E 7.0 mph11.3 kmh 29.89 in1012.2 mb 0.00 in0.0 mm 0.00 in0.0 mm 0.00 in0.0 mm
10:15 AM 29.0°F-1.7°C 24.2°F-4.3°C 82% Calm Calm 4.0 mph6.4 kmh 29.89 in1012.2 mb 0.00 in0.0 mm 0.00 in0.0 mm 0.00 in0.0 mm
10:20 AM 29.1°F-1.6°C 24.3°F-4.3°C 82% 1.0 mph E1.6 kmh E 5.0 mph8.0 kmh 29.89 in1012.2 mb 0.00 in0.0 mm 0.00 in0.0 mm 0.00 in0.0 mm
10:25 AM 29.1°F-1.6°C 24.3°F-4.3°C 82% 3.0 mph E4.8 kmh E 8.0 mph12.9 kmh 29.88 in1011.9 mb 0.00 in0.0 mm 0.00 in0.0 mm 0.00 in0.0 mm
10:30 AM 29.1°F-1.6°C 24.3°F-4.3°C 82% 2.0 mph ESE3.2 kmh ESE 9.0 mph14.5 kmh 29.88 in1011.9 mb 0.00 in0.0 mm 0.00 in0.0 mm 0.00 in0.0 mm
10:34 AM 29.2°F-1.6°C 24.4°F-4.2°C 82% 2.0 mph E3.2 kmh E 9.0 mph14.5 kmh 29.88 in1011.9 mb 0.00 in0.0 mm 0.00 in0.0 mm 0.00 in0.0 mm
10:40 AM 29.3°F-1.5°C 24.5°F-4.2°C 82% 1.0 mph ESE1.6 kmh ESE 2.0 mph3.2 kmh 29.89 in1012.2 mb 0.00 in0.0 mm 0.00 in0.0 mm 0.00 in0.0 mm
10:45 AM 29.3°F-1.5°C 24.5°F-4.2°C 82% 2.0 mph ENE3.2 kmh ENE 6.0 mph9.7 kmh 29.85 in1010.8 mb 0.00 in0.0 mm 0.00 in0.0 mm 0.00 in0.0 mm
10:49 AM 29.3°F-1.5°C 24.2°F-4.3°C 81% 3.0 mph NE4.8 kmh NE 5.0 mph8.0 kmh 29.86 in1011.2 mb 0.00 in0.0 mm 0.00 in0.0 mm 0.00 in0.0 mm
10:55 AM 29.4°F-1.4°C 24.6°F-4.1°C 82% Calm Calm 3.0 mph4.8 kmh 29.86 in1011.2 mb 0.00 in0.0 mm 0.00 in0.0 mm 0.00 in0.0 mm
11:00 AM 29.4°F-1.4°C 24.3°F-4.3°C 81% 5.0 mph ENE8.0 kmh ENE 7.0 mph11.3 kmh 29.85 in1010.8 mb 0.00 in0.0 mm 0.00 in0.0 mm 0.00 in0.0 mm
11:05 AM 29.5°F-1.4°C 24.7°F-4.1°C 82% 3.0 mph E4.8 kmh E 13.0 mph20.9 kmh 29.84 in1010.5 mb 0.00 in0.0 mm 0.00 in0.0 mm 0.00 in0.0 mm
11:10 AM 29.5°F-1.4°C 24.7°F-4.1°C 82% 1.0 mph E1.6 kmh E 7.0 mph11.3 kmh 29.84 in1010.5 mb 0.00 in0.0 mm 0.00 in0.0 mm 0.00 in0.0 mm
11:15 AM 29.7°F-1.3°C 24.9°F-3.9°C 82% 1.0 mph ENE1.6 kmh ENE 7.0 mph11.3 kmh 29.84 in1010.5 mb 0.00 in0.0 mm 0.00 in0.0 mm 0.00 in0.0 mm
11:20 AM 29.7°F-1.3°C 24.6°F-4.1°C 81% 2.0 mph SE3.2 kmh SE 8.0 mph12.9 kmh 29.85 in1010.8 mb 0.00 in0.0 mm 0.00 in0.0 mm 0.00 in0.0 mm
11:24 AM 29.8°F-1.2°C 25.0°F-3.9°C 82% 1.0 mph ESE1.6 kmh ESE 4.0 mph6.4 kmh 29.85 in1010.8 mb 0.00 in0.0 mm 0.00 in0.0 mm 0.00 in0.0 mm
11:30 AM 29.9°F-1.2°C 25.1°F-3.8°C 82% Calm Calm 4.0 mph6.4 kmh 29.85 in1010.8 mb 0.00 in0.0 mm 0.00 in0.0 mm 0.00 in0.0 mm
11:35 AM 30.0°F-1.1°C 25.2°F-3.8°C 82% 6.0 mph E9.7 kmh E 8.0 mph12.9 kmh 29.85 in1010.8 mb 0.00 in0.0 mm 0.00 in0.0 mm 0.00 in0.0 mm
11:40 AM 29.9°F-1.2°C 24.8°F-4.0°C 81% 2.0 mph SE3.2 kmh SE 9.0 mph14.5 kmh 29.85 in1010.8 mb 0.00 in0.0 mm 0.00 in0.0 mm 0.00 in0.0 mm
11:45 AM 29.9°F-1.2°C 24.8°F-4.0°C 81% 1.0 mph E1.6 kmh E 6.0 mph9.7 kmh 29.85 in1010.8 mb 0.00 in0.0 mm 0.00 in0.0 mm 0.00 in0.0 mm
11:50 AM 29.9°F-1.2°C 25.1°F-3.8°C 82% 5.0 mph SE8.0 kmh SE 9.0 mph14.5 kmh 29.85 in1010.8 mb 0.00 in0.0 mm 0.00 in0.0 mm 0.00 in0.0 mm
11:55 AM 30.0°F-1.1°C 25.2°F-3.8°C 82% 2.0 mph SE3.2 kmh SE 5.0 mph8.0 kmh 29.84 in1010.5 mb 0.00 in0.0 mm 0.00 in0.0 mm 0.00 in0.0 mm
12:00 PM 30.1°F-1.1°C 25.3°F-3.7°C 82% 8.0 mph E12.9 kmh E 9.0 mph14.5 kmh 29.84 in1010.5 mb 0.00 in0.0 mm 0.00 in0.0 mm 0.00 in0.0 mm
12:05 PM 30.2°F-1.0°C 25.4°F-3.7°C 82% 4.0 mph E6.4 kmh E 11.0 mph17.7 kmh 29.83 in1010.2 mb 0.00 in0.0 mm 0.00 in0.0 mm 0.00 in0.0 mm
12:10 PM 30.2°F-1.0°C 25.4°F-3.7°C 82% 8.0 mph E12.9 kmh E 8.0 mph12.9 kmh 29.83 in1010.2 mb 0.00 in0.0 mm 0.00 in0.0 mm 0.00 in0.0 mm
12:15 PM 30.3°F-0.9°C 25.5°F-3.6°C 82% 1.0 mph E1.6 kmh E 5.0 mph8.0 kmh 29.84 in1010.5 mb 0.00 in0.0 mm 0.00 in0.0 mm 0.00 in0.0 mm
12:20 PM 30.4°F-0.9°C 25.6°F-3.6°C 82% Calm Calm 6.0 mph9.7 kmh 29.84 in1010.5 mb 0.00 in0.0 mm 0.00 in0.0 mm 0.00 in0.0 mm
12:25 PM 30.5°F-0.8°C 25.7°F-3.5°C 82% 2.0 mph ESE3.2 kmh ESE 8.0 mph12.9 kmh 29.83 in1010.2 mb 0.00 in0.0 mm 0.00 in0.0 mm 0.00 in0.0 mm
12:30 PM 30.6°F-0.8°C 25.8°F-3.4°C 82% 1.0 mph ESE1.6 kmh ESE 7.0 mph11.3 kmh 29.83 in1010.2 mb 0.00 in0.0 mm 0.00 in0.0 mm 0.00 in0.0 mm
12:35 PM 30.7°F-0.7°C 25.9°F-3.4°C 82% 3.0 mph E4.8 kmh E 4.0 mph6.4 kmh 29.83 in1010.2 mb 0.00 in0.0 mm 0.00 in0.0 mm 0.00 in0.0 mm
12:40 PM 30.8°F-0.7°C 26.0°F-3.3°C 82% 2.0 mph ESE3.2 kmh ESE 2.0 mph3.2 kmh 29.84 in1010.5 mb 0.00 in0.0 mm 0.00 in0.0 mm 0.00 in0.0 mm
12:45 PM 30.8°F-0.7°C 25.7°F-3.5°C 81% 2.0 mph E3.2 kmh E 7.0 mph11.3 kmh 29.84 in1010.5 mb 0.00 in0.0 mm 0.00 in0.0 mm 0.00 in0.0 mm
12:49 PM 30.8°F-0.7°C 25.7°F-3.5°C 81% 2.0 mph SE3.2 kmh SE 3.0 mph4.8 kmh 29.85 in1010.8 mb 0.00 in0.0 mm 0.00 in0.0 mm 0.00 in0.0 mm
12:55 PM 30.8°F-0.7°C 25.7°F-3.5°C 81% Calm Calm 5.0 mph8.0 kmh 29.86 in1011.2 mb 0.00 in0.0 mm 0.00 in0.0 mm 0.00 in0.0 mm
01:00 PM 30.9°F-0.6°C 25.8°F-3.4°C 81% 4.0 mph S6.4 kmh S 7.0 mph11.3 kmh 29.87 in1011.5 mb 0.00 in0.0 mm 0.00 in0.0 mm 0.00 in0.0 mm
01:05 PM 30.8°F-0.7°C 26.0°F-3.3°C 82% Calm Calm 2.0 mph3.2 kmh 29.87 in1011.5 mb 0.00 in0.0 mm 0.00 in0.0 mm 0.00 in0.0 mm
01:10 PM 30.8°F-0.7°C 26.0°F-3.3°C 82% Calm Calm 3.0 mph4.8 kmh 29.87 in1011.5 mb 0.00 in0.0 mm 0.00 in0.0 mm 0.00 in0.0 mm
01:15 PM 30.8°F-0.7°C 26.3°F-3.2°C 83% Calm Calm 1.0 mph1.6 kmh 29.87 in1011.5 mb 0.00 in0.0 mm 0.00 in0.0 mm 0.00 in0.0 mm
01:20 PM 30.9°F-0.6°C 26.6°F-3.0°C 84% Calm Calm 1.0 mph1.6 kmh 29.87 in1011.5 mb 0.00 in0.0 mm 0.00 in0.0 mm 0.00 in0.0 mm
01:24 PM 30.9°F-0.6°C 26.6°F-3.0°C 84% Calm Calm 1.0 mph1.6 kmh 29.87 in1011.5 mb 0.00 in0.0 mm 0.00 in0.0 mm 0.00 in0.0 mm
01:30 PM 31.0°F-0.6°C 27.0°F-2.8°C 85% Calm Calm 1.0 mph1.6 kmh 29.87 in1011.5 mb 0.00 in0.0 mm 0.00 in0.0 mm 0.00 in0.0 mm
01:35 PM 31.1°F-0.5°C 27.4°F-2.6°C 86% Calm Calm 1.0 mph1.6 kmh 29.86 in1011.2 mb 0.00 in0.0 mm 0.00 in0.0 mm 0.00 in0.0 mm
01:40 PM 31.2°F-0.4°C 27.8°F-2.3°C 87% Calm Calm 3.0 mph4.8 kmh 29.86 in1011.2 mb 0.00 in0.0 mm 0.00 in0.0 mm 0.00 in0.0 mm
01:45 PM 31.1°F-0.5°C 27.7°F-2.4°C 87% Calm Calm 2.0 mph3.2 kmh 29.86 in1011.2 mb 0.01 in0.3 mm 0.12 in3.0 mm 0.01 in0.3 mm
01:50 PM 31.1°F-0.5°C 27.7°F-2.4°C 87% Calm Calm 1.0 mph1.6 kmh 29.86 in1011.2 mb 0.01 in0.3 mm 0.00 in0.0 mm 0.01 in0.3 mm
01:55 PM 31.1°F-0.5°C 27.7°F-2.4°C 87% Calm Calm 4.0 mph6.4 kmh 29.85 in1010.8 mb 0.01 in0.3 mm 0.00 in0.0 mm 0.01 in0.3 mm
01:59 PM 31.0°F-0.6°C 27.9°F-2.3°C 88% Calm Calm 4.0 mph6.4 kmh 29.85 in1010.8 mb 0.01 in0.3 mm 0.00 in0.0 mm 0.01 in0.3 mm
02:04 PM 31.0°F-0.6°C 27.9°F-2.3°C 88% Calm Calm 2.0 mph3.2 kmh 29.84 in1010.5 mb 0.01 in0.3 mm 0.00 in0.0 mm 0.01 in0.3 mm
02:10 PM 31.0°F-0.6°C 27.9°F-2.3°C 88% 3.0 mph E4.8 kmh E 3.0 mph4.8 kmh 29.84 in1010.5 mb 0.01 in0.3 mm 0.00 in0.0 mm 0.01 in0.3 mm
02:15 PM 31.1°F-0.5°C 28.0°F-2.2°C 88% 1.0 mph E1.6 kmh E 2.0 mph3.2 kmh 29.83 in1010.2 mb 0.01 in0.3 mm 0.00 in0.0 mm 0.01 in0.3 mm
02:20 PM 31.3°F-0.4°C 28.4°F-2.0°C 89% Calm Calm 3.0 mph4.8 kmh 29.83 in1010.2 mb 0.01 in0.3 mm 0.00 in0.0 mm 0.01 in0.3 mm
02:25 PM 31.4°F-0.3°C 28.5°F-1.9°C 89% Calm Calm 3.0 mph4.8 kmh 29.82 in1009.8 mb 0.01 in0.3 mm 0.00 in0.0 mm 0.01 in0.3 mm
02:30 PM 31.3°F-0.4°C 28.4°F-2.0°C 89% Calm Calm 2.0 mph3.2 kmh 29.82 in1009.8 mb 0.01 in0.3 mm 0.00 in0.0 mm 0.01 in0.3 mm
02:34 PM 31.2°F-0.4°C 28.3°F-2.1°C 89% 1.0 mph NE1.6 kmh NE 3.0 mph4.8 kmh 29.82 in1009.8 mb 0.01 in0.3 mm 0.00 in0.0 mm 0.01 in0.3 mm
02:40 PM 31.1°F-0.5°C 28.2°F-2.1°C 89% Calm Calm 1.0 mph1.6 kmh 29.81 in1009.5 mb 0.01 in0.3 mm 0.00 in0.0 mm 0.01 in0.3 mm
02:45 PM 31.2°F-0.4°C 28.3°F-2.1°C 89% Calm Calm 3.0 mph4.8 kmh 29.81 in1009.5 mb 0.01 in0.3 mm 0.00 in0.0 mm 0.01 in0.3 mm
02:50 PM 31.0°F-0.6°C 28.1°F-2.2°C 89% Calm Calm 4.0 mph6.4 kmh 29.81 in1009.5 mb 0.00 in0.0 mm 0.00 in0.0 mm 0.01 in0.3 mm
02:55 PM 30.9°F-0.6°C 28.1°F-2.2°C 89% Calm Calm 2.0 mph3.2 kmh 29.80 in1009.1 mb 0.00 in0.0 mm 0.00 in0.0 mm 0.01 in0.3 mm
03:00 PM 31.0°F-0.6°C 28.1°F-2.2°C 89% Calm Calm 1.0 mph1.6 kmh 29.81 in1009.5 mb 0.00 in0.0 mm 0.00 in0.0 mm 0.01 in0.3 mm
03:05 PM 31.1°F-0.5°C 28.2°F-2.1°C 89% Calm Calm 1.0 mph1.6 kmh 29.80 in1009.1 mb 0.00 in0.0 mm 0.00 in0.0 mm 0.01 in0.3 mm
03:10 PM 31.2°F-0.4°C 28.6°F-1.9°C 90% Calm Calm -- 29.80 in1009.1 mb 0.00 in0.0 mm 0.00 in0.0 mm 0.01 in0.3 mm
03:15 PM 31.2°F-0.4°C 28.3°F-2.1°C 89% 1.0 mph NE1.6 kmh NE 2.0 mph3.2 kmh 29.80 in1009.1 mb 0.00 in0.0 mm 0.00 in0.0 mm 0.01 in0.3 mm
03:19 PM 31.1°F-0.5°C 28.2°F-2.1°C 89% Calm Calm 1.0 mph1.6 kmh 29.80 in1009.1 mb 0.00 in0.0 mm 0.00 in0.0 mm 0.01 in0.3 mm
03:25 PM 31.2°F-0.4°C 28.3°F-2.1°C 89% Calm Calm 1.0 mph1.6 kmh 29.80 in1009.1 mb 0.00 in0.0 mm 0.00 in0.0 mm 0.01 in0.3 mm
03:30 PM 31.3°F-0.4°C 28.7°F-1.8°C 90% Calm Calm 2.0 mph3.2 kmh 29.80 in1009.1 mb 0.00 in0.0 mm 0.00 in0.0 mm 0.01 in0.3 mm
03:34 PM 31.3°F-0.4°C 28.7°F-1.8°C 90% Calm Calm -- 29.79 in1008.8 mb 0.00 in0.0 mm 0.00 in0.0 mm 0.01 in0.3 mm
03:40 PM 31.5°F-0.3°C 28.9°F-1.7°C 90% Calm Calm 1.0 mph1.6 kmh 29.79 in1008.8 mb 0.00 in0.0 mm 0.00 in0.0 mm 0.01 in0.3 mm
03:45 PM 31.5°F-0.3°C 28.9°F-1.7°C 90% Calm Calm 2.0 mph3.2 kmh 29.79 in1008.8 mb 0.00 in0.0 mm 0.00 in0.0 mm 0.01 in0.3 mm
03:50 PM 31.4°F-0.3°C 28.5°F-1.9°C 89% Calm Calm 1.0 mph1.6 kmh 29.79 in1008.8 mb 0.00 in0.0 mm 0.00 in0.0 mm 0.01 in0.3 mm
03:55 PM 31.3°F-0.4°C 28.4°F-2.0°C 89% Calm Calm 1.0 mph1.6 kmh 29.79 in1008.8 mb 0.00 in0.0 mm 0.00 in0.0 mm 0.01 in0.3 mm
03:59 PM 31.4°F-0.3°C 28.8°F-1.8°C 90% 1.0 mph E1.6 kmh E 1.0 mph1.6 kmh 29.80 in1009.1 mb 0.00 in0.0 mm 0.00 in0.0 mm 0.01 in0.3 mm
04:04 PM 31.3°F-0.4°C 28.4°F-2.0°C 89% Calm Calm -- 29.80 in1009.1 mb 0.00 in0.0 mm 0.00 in0.0 mm 0.01 in0.3 mm
04:10 PM 31.3°F-0.4°C 28.4°F-2.0°C 89% Calm Calm -- 29.80 in1009.1 mb 0.00 in0.0 mm 0.00 in0.0 mm 0.01 in0.3 mm
04:14 PM 31.4°F-0.3°C 28.8°F-1.8°C 90% Calm Calm -- 29.80 in1009.1 mb 0.00 in0.0 mm 0.00 in0.0 mm 0.01 in0.3 mm
04:20 PM 31.5°F-0.3°C 28.9°F-1.7°C 90% 1.0 mph E1.6 kmh E 2.0 mph3.2 kmh 29.79 in1008.8 mb 0.00 in0.0 mm 0.00 in0.0 mm 0.01 in0.3 mm
04:24 PM 31.5°F-0.3°C 28.9°F-1.7°C 90% Calm Calm 1.0 mph1.6 kmh 29.79 in1008.8 mb 0.00 in0.0 mm 0.00 in0.0 mm 0.01 in0.3 mm
04:30 PM 31.5°F-0.3°C 28.9°F-1.7°C 90% Calm Calm 2.0 mph3.2 kmh 29.79 in1008.8 mb 0.00 in0.0 mm 0.00 in0.0 mm 0.01 in0.3 mm
04:35 PM 31.6°F-0.2°C 29.0°F-1.7°C 90% Calm Calm 3.0 mph4.8 kmh 29.78 in1008.5 mb 0.00 in0.0 mm 0.00 in0.0 mm 0.01 in0.3 mm
04:40 PM 31.6°F-0.2°C 29.0°F-1.7°C 90% 1.0 mph E1.6 kmh E 1.0 mph1.6 kmh 29.78 in1008.5 mb 0.00 in0.0 mm 0.00 in0.0 mm 0.01 in0.3 mm
04:45 PM 31.7°F-0.2°C 29.1°F-1.6°C 90% Calm Calm 3.0 mph4.8 kmh 29.78 in1008.5 mb 0.00 in0.0 mm 0.00 in0.0 mm 0.01 in0.3 mm
04:50 PM 31.7°F-0.2°C 29.1°F-1.6°C 90% Calm Calm -- 29.78 in1008.5 mb 0.00 in0.0 mm 0.00 in0.0 mm 0.01 in0.3 mm
04:55 PM 31.9°F-0.1°C 29.3°F-1.5°C 90% 2.0 mph E3.2 kmh E 2.0 mph3.2 kmh 29.78 in1008.5 mb 0.00 in0.0 mm 0.00 in0.0 mm 0.01 in0.3 mm
05:00 PM 31.8°F-0.1°C 29.2°F-1.6°C 90% Calm Calm 3.0 mph4.8 kmh 29.78 in1008.5 mb 0.00 in0.0 mm 0.00 in0.0 mm 0.01 in0.3 mm
05:05 PM 31.8°F-0.1°C 29.2°F-1.6°C 90% Calm Calm 2.0 mph3.2 kmh 29.78 in1008.5 mb 0.00 in0.0 mm 0.00 in0.0 mm 0.01 in0.3 mm
05:10 PM 31.8°F-0.1°C 29.2°F-1.6°C 90% Calm Calm 2.0 mph3.2 kmh 29.79 in1008.8 mb 0.00 in0.0 mm 0.00 in0.0 mm 0.01 in0.3 mm
05:15 PM 31.7°F-0.2°C 29.1°F-1.6°C 90% Calm Calm 4.0 mph6.4 kmh 29.78 in1008.5 mb 0.00 in0.0 mm 0.00 in0.0 mm 0.01 in0.3 mm
05:20 PM 31.7°F-0.2°C 29.1°F-1.6°C 90% Calm Calm 4.0 mph6.4 kmh 29.78 in1008.5 mb 0.00 in0.0 mm 0.00 in0.0 mm 0.01 in0.3 mm
05:25 PM 31.8°F-0.1°C 29.2°F-1.6°C 90% 4.0 mph SSE6.4 kmh SSE 5.0 mph8.0 kmh 29.78 in1008.5 mb 0.00 in0.0 mm 0.00 in0.0 mm 0.01 in0.3 mm
05:29 PM 31.8°F-0.1°C 29.5°F-1.4°C 91% 4.0 mph SE6.4 kmh SE 7.0 mph11.3 kmh 29.78 in1008.5 mb 0.00 in0.0 mm 0.00 in0.0 mm 0.01 in0.3 mm
05:35 PM 31.7°F-0.2°C 29.1°F-1.6°C 90% Calm Calm 6.0 mph9.7 kmh 29.78 in1008.5 mb 0.00 in0.0 mm 0.00 in0.0 mm 0.01 in0.3 mm
05:40 PM 31.7°F-0.2°C 29.4°F-1.4°C 91% 2.0 mph SSE3.2 kmh SSE 8.0 mph12.9 kmh 29.78 in1008.5 mb 0.00 in0.0 mm 0.00 in0.0 mm 0.01 in0.3 mm
05:45 PM 31.6°F-0.2°C 29.0°F-1.7°C 90% 2.0 mph SSW3.2 kmh SSW 3.0 mph4.8 kmh 29.81 in1009.5 mb 0.00 in0.0 mm 0.00 in0.0 mm 0.01 in0.3 mm
05:50 PM 31.6°F-0.2°C 29.3°F-1.5°C 91% 3.0 mph SW4.8 kmh SW 3.0 mph4.8 kmh 29.81 in1009.5 mb 0.00 in0.0 mm 0.00 in0.0 mm 0.01 in0.3 mm
05:55 PM 31.5°F-0.3°C 29.2°F-1.6°C 91% 1.0 mph SW1.6 kmh SW 3.0 mph4.8 kmh 29.81 in1009.5 mb 0.00 in0.0 mm 0.00 in0.0 mm 0.01 in0.3 mm
06:00 PM 31.5°F-0.3°C 29.2°F-1.6°C 91% Calm Calm 2.0 mph3.2 kmh 29.81 in1009.5 mb 0.00 in0.0 mm 0.00 in0.0 mm 0.01 in0.3 mm
06:05 PM 31.7°F-0.2°C 29.4°F-1.4°C 91% 1.0 mph SW1.6 kmh SW 3.0 mph4.8 kmh 29.81 in1009.5 mb 0.00 in0.0 mm 0.00 in0.0 mm 0.01 in0.3 mm
06:10 PM 31.8°F-0.1°C 29.5°F-1.4°C 91% Calm Calm 1.0 mph1.6 kmh 29.80 in1009.1 mb 0.00 in0.0 mm 0.00 in0.0 mm 0.01 in0.3 mm
06:15 PM 31.7°F-0.2°C 29.4°F-1.4°C 91% 1.0 mph SW1.6 kmh SW 1.0 mph1.6 kmh 29.81 in1009.5 mb 0.00 in0.0 mm 0.00 in0.0 mm 0.01 in0.3 mm
06:19 PM 31.7°F-0.2°C 29.4°F-1.4°C 91% Calm Calm 2.0 mph3.2 kmh 29.81 in1009.5 mb 0.00 in0.0 mm 0.00 in0.0 mm 0.01 in0.3 mm
06:25 PM 31.7°F-0.2°C 29.4°F-1.4°C 91% Calm Calm 1.0 mph1.6 kmh 29.81 in1009.5 mb 0.00 in0.0 mm 0.00 in0.0 mm 0.01 in0.3 mm
06:30 PM 31.7°F-0.2°C 29.4°F-1.4°C 91% 1.0 mph SW1.6 kmh SW 2.0 mph3.2 kmh 29.81 in1009.5 mb 0.00 in0.0 mm 0.00 in0.0 mm 0.01 in0.3 mm
06:35 PM 31.6°F-0.2°C 29.3°F-1.5°C 91% Calm Calm 2.0 mph3.2 kmh 29.81 in1009.5 mb 0.00 in0.0 mm 0.00 in0.0 mm 0.01 in0.3 mm
06:40 PM 31.6°F-0.2°C 29.3°F-1.5°C 91% Calm Calm 2.0 mph3.2 kmh 29.82 in1009.8 mb 0.00 in0.0 mm 0.00 in0.0 mm 0.01 in0.3 mm
06:45 PM 31.6°F-0.2°C 29.3°F-1.5°C 91% 2.0 mph SW3.2 kmh SW 2.0 mph3.2 kmh 29.82 in1009.8 mb 0.00 in0.0 mm 0.00 in0.0 mm 0.01 in0.3 mm
06:50 PM 31.6°F-0.2°C 29.3°F-1.5°C 91% Calm Calm 4.0 mph6.4 kmh 29.82 in1009.8 mb 0.00 in0.0 mm 0.00 in0.0 mm 0.01 in0.3 mm
06:55 PM 31.6°F-0.2°C 29.3°F-1.5°C 91% 2.0 mph SW3.2 kmh SW 3.0 mph4.8 kmh 29.83 in1010.2 mb 0.00 in0.0 mm 0.00 in0.0 mm 0.01 in0.3 mm
07:00 PM 31.7°F-0.2°C 29.4°F-1.4°C 91% Calm Calm 2.0 mph3.2 kmh 29.83 in1010.2 mb 0.00 in0.0 mm 0.00 in0.0 mm 0.01 in0.3 mm
07:05 PM 31.7°F-0.2°C 29.4°F-1.4°C 91% 3.0 mph SW4.8 kmh SW 3.0 mph4.8 kmh 29.83 in1010.2 mb 0.00 in0.0 mm 0.00 in0.0 mm 0.01 in0.3 mm
07:09 PM 31.7°F-0.2°C 29.4°F-1.4°C 91% Calm Calm 3.0 mph4.8 kmh 29.84 in1010.5 mb 0.00 in0.0 mm 0.00 in0.0 mm 0.01 in0.3 mm
07:14 PM 31.7°F-0.2°C 29.4°F-1.4°C 91% Calm Calm 3.0 mph4.8 kmh 29.84 in1010.5 mb 0.00 in0.0 mm 0.00 in0.0 mm 0.01 in0.3 mm
07:20 PM 31.7°F-0.2°C 29.4°F-1.4°C 91% Calm Calm 3.0 mph4.8 kmh 29.84 in1010.5 mb 0.00 in0.0 mm 0.00 in0.0 mm 0.01 in0.3 mm
07:24 PM 31.7°F-0.2°C 29.4°F-1.4°C 91% Calm Calm 3.0 mph4.8 kmh 29.84 in1010.5 mb 0.00 in0.0 mm 0.00 in0.0 mm 0.01 in0.3 mm
07:30 PM 31.7°F-0.2°C 29.4°F-1.4°C 91% Calm Calm 2.0 mph3.2 kmh 29.85 in1010.8 mb 0.00 in0.0 mm 0.00 in0.0 mm 0.01 in0.3 mm
07:35 PM 32.0°F0.0°C 29.7°F-1.3°C 91% Calm Calm 2.0 mph3.2 kmh 29.85 in1010.8 mb 0.00 in0.0 mm 0.00 in0.0 mm 0.01 in0.3 mm
07:40 PM 32.0°F0.0°C 29.7°F-1.3°C 91% Calm Calm 4.0 mph6.4 kmh 29.85 in1010.8 mb 0.00 in0.0 mm 0.00 in0.0 mm 0.01 in0.3 mm
07:45 PM 31.9°F-0.1°C 29.6°F-1.3°C 91% 1.0 mph WSW1.6 kmh WSW 1.0 mph1.6 kmh 29.85 in1010.8 mb 0.00 in0.0 mm 0.00 in0.0 mm 0.01 in0.3 mm
07:50 PM 31.9°F-0.1°C 29.6°F-1.3°C 91% 2.0 mph WSW3.2 kmh WSW 2.0 mph3.2 kmh 29.85 in1010.8 mb 0.00 in0.0 mm 0.00 in0.0 mm 0.01 in0.3 mm
07:55 PM 31.9°F-0.1°C 29.6°F-1.3°C 91% 1.0 mph WSW1.6 kmh WSW 3.0 mph4.8 kmh 29.86 in1011.2 mb 0.00 in0.0 mm 0.00 in0.0 mm 0.01 in0.3 mm
08:00 PM 31.9°F-0.1°C 29.6°F-1.3°C 91% Calm Calm -- 29.86 in1011.2 mb 0.00 in0.0 mm 0.00 in0.0 mm 0.01 in0.3 mm
08:04 PM 31.9°F-0.1°C 29.6°F-1.3°C 91% 1.0 mph WSW1.6 kmh WSW 3.0 mph4.8 kmh 29.86 in1011.2 mb 0.00 in0.0 mm 0.00 in0.0 mm 0.01 in0.3 mm
08:09 PM 31.9°F-0.1°C 29.6°F-1.3°C 91% 2.0 mph WSW3.2 kmh WSW 2.0 mph3.2 kmh 29.86 in1011.2 mb 0.00 in0.0 mm 0.00 in0.0 mm 0.01 in0.3 mm
08:15 PM 31.9°F-0.1°C 29.6°F-1.3°C 91% 1.0 mph WSW1.6 kmh WSW 3.0 mph4.8 kmh 29.86 in1011.2 mb 0.00 in0.0 mm 0.00 in0.0 mm 0.01 in0.3 mm
08:20 PM 31.9°F-0.1°C 29.6°F-1.3°C 91% Calm Calm 1.0 mph1.6 kmh 29.86 in1011.2 mb 0.00 in0.0 mm 0.00 in0.0 mm 0.01 in0.3 mm
08:25 PM 32.0°F0.0°C 29.7°F-1.3°C 91% Calm Calm 2.0 mph3.2 kmh 29.87 in1011.5 mb 0.00 in0.0 mm 0.00 in0.0 mm 0.01 in0.3 mm
08:30 PM 32.0°F0.0°C 29.7°F-1.3°C 91% Calm Calm 1.0 mph1.6 kmh 29.87 in1011.5 mb 0.00 in0.0 mm 0.00 in0.0 mm 0.01 in0.3 mm
08:35 PM 32.0°F0.0°C 29.9°F-1.2°C 92% Calm Calm 2.0 mph3.2 kmh 29.87 in1011.5 mb 0.00 in0.0 mm 0.00 in0.0 mm 0.01 in0.3 mm
08:40 PM 32.0°F0.0°C 29.9°F-1.2°C 92% 3.0 mph WSW4.8 kmh WSW 3.0 mph4.8 kmh 29.87 in1011.5 mb 0.00 in0.0 mm 0.00 in0.0 mm 0.01 in0.3 mm
08:45 PM 32.1°F0.1°C 30.0°F-1.1°C 92% Calm Calm -- 29.87 in1011.5 mb 0.00 in0.0 mm 0.00 in0.0 mm 0.01 in0.3 mm
08:50 PM 32.2°F0.1°C 30.1°F-1.1°C 92% 1.0 mph WSW1.6 kmh WSW 2.0 mph3.2 kmh 29.88 in1011.9 mb 0.00 in0.0 mm 0.00 in0.0 mm 0.01 in0.3 mm
08:54 PM 32.2°F0.1°C 30.1°F-1.1°C 92% 2.0 mph WSW3.2 kmh WSW 2.0 mph3.2 kmh 29.88 in1011.9 mb 0.00 in0.0 mm 0.00 in0.0 mm 0.01 in0.3 mm
09:00 PM 32.3°F0.2°C 30.2°F-1.0°C 92% 1.0 mph WSW1.6 kmh WSW 4.0 mph6.4 kmh 29.88 in1011.9 mb 0.00 in0.0 mm 0.00 in0.0 mm 0.01 in0.3 mm
09:05 PM 32.2°F0.1°C 30.1°F-1.1°C 92% 4.0 mph WSW6.4 kmh WSW 4.0 mph6.4 kmh 29.88 in1011.9 mb 0.00 in0.0 mm 0.00 in0.0 mm 0.01 in0.3 mm
09:10 PM 32.2°F0.1°C 30.1°F-1.1°C 92% Calm Calm 3.0 mph4.8 kmh 29.88 in1011.9 mb 0.00 in0.0 mm 0.00 in0.0 mm 0.01 in0.3 mm
09:15 PM 32.2°F0.1°C 30.1°F-1.1°C 92% 3.0 mph WSW4.8 kmh WSW 5.0 mph8.0 kmh 29.89 in1012.2 mb 0.00 in0.0 mm 0.00 in0.0 mm 0.01 in0.3 mm
09:20 PM 32.2°F0.1°C 30.1°F-1.1°C 92% 2.0 mph WSW3.2 kmh WSW 5.0 mph8.0 kmh 29.89 in1012.2 mb 0.00 in0.0 mm 0.00 in0.0 mm 0.01 in0.3 mm
09:25 PM 32.2°F0.1°C 30.1°F-1.1°C 92% Calm Calm 5.0 mph8.0 kmh 29.89 in1012.2 mb 0.00 in0.0 mm 0.00 in0.0 mm 0.01 in0.3 mm
09:30 PM 32.2°F0.1°C 30.1°F-1.1°C 92% 3.0 mph WSW4.8 kmh WSW 5.0 mph8.0 kmh 29.89 in1012.2 mb 0.00 in0.0 mm 0.00 in0.0 mm 0.01 in0.3 mm
09:35 PM 32.2°F0.1°C 30.1°F-1.1°C 92% Calm Calm 4.0 mph6.4 kmh 29.89 in1012.2 mb 0.00 in0.0 mm 0.00 in0.0 mm 0.01 in0.3 mm
09:40 PM 32.1°F0.1°C 30.0°F-1.1°C 92% 6.0 mph W9.7 kmh W 6.0 mph9.7 kmh 29.89 in1012.2 mb 0.00 in0.0 mm 0.00 in0.0 mm 0.01 in0.3 mm
09:44 PM 32.1°F0.1°C 30.0°F-1.1°C 92% 2.0 mph W3.2 kmh W 4.0 mph6.4 kmh 29.89 in1012.2 mb 0.00 in0.0 mm 0.00 in0.0 mm 0.01 in0.3 mm
09:50 PM 32.1°F0.1°C 30.0°F-1.1°C 92% 3.0 mph W4.8 kmh W 4.0 mph6.4 kmh 29.90 in1012.5 mb 0.00 in0.0 mm 0.00 in0.0 mm 0.01 in0.3 mm
09:55 PM 32.1°F0.1°C 30.0°F-1.1°C 92% 7.0 mph W11.3 kmh W 7.0 mph11.3 kmh 29.90 in1012.5 mb 0.00 in0.0 mm 0.00 in0.0 mm 0.01 in0.3 mm
10:00 PM 32.2°F0.1°C 30.1°F-1.1°C 92% 1.0 mph W1.6 kmh W 4.0 mph6.4 kmh 29.90 in1012.5 mb 0.00 in0.0 mm 0.00 in0.0 mm 0.01 in0.3 mm
10:05 PM 32.2°F0.1°C 30.1°F-1.1°C 92% 1.0 mph W1.6 kmh W 6.0 mph9.7 kmh 29.90 in1012.5 mb 0.00 in0.0 mm 0.00 in0.0 mm 0.01 in0.3 mm
10:09 PM 32.2°F0.1°C 30.1°F-1.1°C 92% 1.0 mph W1.6 kmh W 3.0 mph4.8 kmh 29.90 in1012.5 mb 0.00 in0.0 mm 0.00 in0.0 mm 0.01 in0.3 mm
10:15 PM 32.1°F0.1°C 30.0°F-1.1°C 92% 2.0 mph W3.2 kmh W 7.0 mph11.3 kmh 29.90 in1012.5 mb 0.00 in0.0 mm 0.00 in0.0 mm 0.01 in0.3 mm
10:20 PM 32.2°F0.1°C 30.1°F-1.1°C 92% Calm Calm 5.0 mph8.0 kmh 29.90 in1012.5 mb 0.00 in0.0 mm 0.00 in0.0 mm 0.01 in0.3 mm
10:25 PM 32.2°F0.1°C 30.1°F-1.1°C 92% 1.0 mph WSW1.6 kmh WSW 5.0 mph8.0 kmh 29.91 in1012.9 mb 0.00 in0.0 mm 0.00 in0.0 mm 0.01 in0.3 mm
10:30 PM 32.2°F0.1°C 30.1°F-1.1°C 92% 2.0 mph WSW3.2 kmh WSW 4.0 mph6.4 kmh 29.91 in1012.9 mb 0.00 in0.0 mm 0.00 in0.0 mm 0.01 in0.3 mm
10:35 PM 32.2°F0.1°C 29.9°F-1.2°C 91% 3.0 mph W4.8 kmh W 3.0 mph4.8 kmh 29.92 in1013.2 mb 0.00 in0.0 mm 0.00 in0.0 mm 0.01 in0.3 mm
10:40 PM 32.3°F0.2°C 30.0°F-1.1°C 91% Calm Calm 2.0 mph3.2 kmh 29.92 in1013.2 mb 0.00 in0.0 mm 0.00 in0.0 mm 0.01 in0.3 mm
10:45 PM 32.3°F0.2°C 30.0°F-1.1°C 91% 2.0 mph W3.2 kmh W 3.0 mph4.8 kmh 29.92 in1013.2 mb 0.00 in0.0 mm 0.00 in0.0 mm 0.01 in0.3 mm
10:50 PM 32.3°F0.2°C 30.0°F-1.1°C 91% 1.0 mph NW1.6 kmh NW 6.0 mph9.7 kmh 29.92 in1013.2 mb 0.00 in0.0 mm 0.00 in0.0 mm 0.01 in0.3 mm
10:55 PM 32.3°F0.2°C 30.0°F-1.1°C 91% 6.0 mph WSW9.7 kmh WSW 6.0 mph9.7 kmh 29.92 in1013.2 mb 0.00 in0.0 mm 0.00 in0.0 mm 0.01 in0.3 mm
11:00 PM 32.3°F0.2°C 30.0°F-1.1°C 91% 3.0 mph W4.8 kmh W 7.0 mph11.3 kmh 29.92 in1013.2 mb 0.00 in0.0 mm 0.00 in0.0 mm 0.01 in0.3 mm
11:04 PM 32.3°F0.2°C 30.0°F-1.1°C 91% Calm Calm 2.0 mph3.2 kmh 29.92 in1013.2 mb 0.00 in0.0 mm 0.00 in0.0 mm 0.01 in0.3 mm
11:10 PM 32.3°F0.2°C 30.0°F-1.1°C 91% 2.0 mph W3.2 kmh W 2.0 mph3.2 kmh 29.92 in1013.2 mb 0.00 in0.0 mm 0.00 in0.0 mm 0.01 in0.3 mm
11:15 PM 32.3°F0.2°C 30.0°F-1.1°C 91% Calm Calm 2.0 mph3.2 kmh 29.92 in1013.2 mb 0.00 in0.0 mm 0.00 in0.0 mm 0.01 in0.3 mm
11:19 PM 32.3°F0.2°C 30.0°F-1.1°C 91% 1.0 mph W1.6 kmh W 6.0 mph9.7 kmh 29.93 in1013.5 mb 0.00 in0.0 mm 0.00 in0.0 mm 0.01 in0.3 mm
11:25 PM 32.3°F0.2°C 30.0°F-1.1°C 91% 3.0 mph WNW4.8 kmh WNW 4.0 mph6.4 kmh 29.93 in1013.5 mb 0.00 in0.0 mm 0.00 in0.0 mm 0.01 in0.3 mm
11:29 PM 32.3°F0.2°C 30.0°F-1.1°C 91% 3.0 mph WSW4.8 kmh WSW 7.0 mph11.3 kmh 29.94 in1013.9 mb 0.00 in0.0 mm 0.00 in0.0 mm 0.01 in0.3 mm
11:35 PM 32.3°F0.2°C 30.0°F-1.1°C 91% 3.0 mph WNW4.8 kmh WNW 4.0 mph6.4 kmh 29.94 in1013.9 mb 0.00 in0.0 mm 0.00 in0.0 mm 0.01 in0.3 mm
11:40 PM 32.3°F0.2°C 30.0°F-1.1°C 91% 2.0 mph WNW3.2 kmh WNW 4.0 mph6.4 kmh 29.94 in1013.9 mb 0.00 in0.0 mm 0.00 in0.0 mm 0.01 in0.3 mm
11:45 PM 32.3°F0.2°C 30.0°F-1.1°C 91% 3.0 mph W4.8 kmh W 7.0 mph11.3 kmh 29.94 in1013.9 mb 0.00 in0.0 mm 0.00 in0.0 mm 0.01 in0.3 mm
11:50 PM 32.3°F0.2°C 30.0°F-1.1°C 91% 5.0 mph WSW8.0 kmh WSW 7.0 mph11.3 kmh 29.94 in1013.9 mb 0.00 in0.0 mm 0.00 in0.0 mm 0.01 in0.3 mm
11:55 PM 32.3°F0.2°C 30.0°F-1.1°C 91% Calm Calm 5.0 mph8.0 kmh 29.94 in1013.9 mb 0.00 in0.0 mm 0.00 in0.0 mm 0.01 in0.3 mm